Time,TemperatureF,DewpointF,PressureIn,WindDirection,WindDirectionDegrees,WindSpeedMPH,WindSpeedGustMPH,Humidity,HourlyPrecipIn,Conditions,Clouds,dailyrainin,SoftwareType,DateUTC
2013-04-24 00:12:00,45.8,43.0,29.85,SSW,211,0.0,0.0,90,0.00,,,0.00,weatherlink.com 1.10,2013-04-24 07:12:00,
2013-04-24 00:27:00,45.3,43.0,29.86,SSW,211,0.0,0.0,90,0.00,,,0.00,weatherlink.com 1.10,2013-04-24 07:27:00,
2013-04-24 00:42:00,44.8,42.0,29.86,SSW,211,0.0,0.0,91,0.00,,,0.00,weatherlink.com 1.10,2013-04-24 07:42:00,
2013-04-24 00:57:00,44.4,42.0,29.85,SSW,211,0.0,0.0,91,0.00,,,0.00,weatherlink.com 1.10,2013-04-24 07:57:00,
2013-04-24 01:12:00,44.0,42.0,29.85,SSW,211,0.0,0.0,92,0.00,,,0.00,weatherlink.com 1.10,2013-04-24 08:12:00,
2013-04-24 01:27:00,44.0,42.0,29.85,SSW,211,0.0,0.0,92,0.00,,,0.00,weatherlink.com 1.10,2013-04-24 08:27:00,
2013-04-24 01:42:00,43.9,42.0,29.85,SSW,211,0.0,0.0,93,0.00,,,0.00,weatherlink.com 1.10,2013-04-24 08:42:00,
2013-04-24 01:57:00,43.5,41.0,29.84,SSW,211,0.0,0.0,92,0.00,,,0.00,weatherlink.com 1.10,2013-04-24 08:57:00,
2013-04-24 02:12:00,43.3,41.0,29.84,SSW,211,0.0,0.0,92,0.00,,,0.00,weatherlink.com 1.10,2013-04-24 09:12:00,
2013-04-24 02:27:00,43.4,41.0,29.84,SSW,211,0.0,0.0,92,0.00,,,0.00,weatherlink.com 1.10,2013-04-24 09:27:00,
2013-04-24 02:42:00,43.0,41.0,29.83,SSW,211,0.0,0.0,93,0.00,,,0.00,weatherlink.com 1.10,2013-04-24 09:42:00,
2013-04-24 02:57:00,42.5,41.0,29.82,SSW,211,0.0,0.0,93,0.00,,,0.00,weatherlink.com 1.10,2013-04-24 09:57:00,
2013-04-24 03:12:00,42.2,40.0,29.82,SSW,211,0.0,0.0,92,0.00,,,0.00,weatherlink.com 1.10,2013-04-24 10:12:00,
2013-04-24 03:27:00,42.0,40.0,29.82,SSW,211,0.0,0.0,93,0.00,,,0.00,weatherlink.com 1.10,2013-04-24 10:27:00,
2013-04-24 03:42:00,41.9,40.0,29.82,SSW,211,0.0,0.0,93,0.00,,,0.00,weatherlink.com 1.10,2013-04-24 10:42:00,
2013-04-24 03:57:00,41.5,40.0,29.81,SSW,211,0.0,0.0,93,0.00,,,0.00,weatherlink.com 1.10,2013-04-24 10:57:00,
2013-04-24 04:12:00,41.3,40.0,29.82,SSW,211,0.0,0.0,93,0.00,,,0.00,weatherlink.com 1.10,2013-04-24 11:12:00,
2013-04-24 04:27:00,41.6,40.0,29.82,SSW,211,0.0,0.0,94,0.00,,,0.00,weatherlink.com 1.10,2013-04-24 11:27:00,
2013-04-24 04:42:00,42.7,41.0,29.81,SSW,211,0.0,0.0,95,0.00,,,0.00,weatherlink.com 1.10,2013-04-24 11:42:00,
2013-04-24 04:57:00,44.0,43.0,29.81,SSW,211,0.0,0.0,95,0.00,,,0.00,weatherlink.com 1.10,2013-04-24 11:57:00,
2013-04-24 05:12:00,44.8,44.0,29.81,SSW,211,0.0,1.0,95,0.00,,,0.00,weatherlink.com 1.10,2013-04-24 12:12:00,
2013-04-24 05:27:00,44.9,43.0,29.81,NW,322,0.0,0.0,94,0.00,,,0.00,weatherlink.com 1.10,2013-04-24 12:27:00,
2013-04-24 05:42:00,44.9,43.0,29.81,NW,322,0.0,1.0,93,0.00,,,0.00,weatherlink.com 1.10,2013-04-24 12:42:00,
2013-04-24 05:57:00,45.1,43.0,29.82,NW,322,0.0,0.0,93,0.00,,,0.00,weatherlink.com 1.10,2013-04-24 12:57:00,
2013-04-24 06:12:00,45.1,43.0,29.82,NW,322,0.0,0.0,92,0.00,,,0.00,weatherlink.com 1.10,2013-04-24 13:12:00,
2013-04-24 06:27:00,45.1,43.0,29.82,NW,321,0.0,0.0,92,0.00,,,0.00,weatherlink.com 1.10,2013-04-24 13:27:00,
2013-04-24 06:42:00,44.8,43.0,29.82,North,355,0.0,1.0,92,0.00,,,0.00,weatherlink.com 1.10,2013-04-24 13:42:00,
2013-04-24 06:57:00,44.6,43.0,29.82,NNW,337,0.0,0.0,92,0.00,,,0.00,weatherlink.com 1.10,2013-04-24 13:57:00,
2013-04-24 07:12:00,44.8,43.0,29.82,WSW,238,0.0,1.0,93,0.00,,,0.00,weatherlink.com 1.10,2013-04-24 14:12:00,
2013-04-24 07:28:00,45.0,43.0,29.83,SW,236,0.0,1.0,93,0.00,,,0.00,weatherlink.com 1.10,2013-04-24 14:28:00,
2013-04-24 07:42:00,45.7,44.0,29.84,SW,236,0.0,0.0,93,0.00,,,0.00,weatherlink.com 1.10,2013-04-24 14:42:00,
2013-04-24 07:57:00,46.1,44.0,29.84,NNW,327,0.0,1.0,93,0.00,,,0.00,weatherlink.com 1.10,2013-04-24 14:57:00,
2013-04-24 08:13:00,47.1,45.0,29.84,NW,309,0.0,0.0,92,0.00,,,0.00,weatherlink.com 1.10,2013-04-24 15:13:00,
2013-04-24 08:28:00,48.1,45.0,29.84,SW,222,0.0,1.0,90,0.00,,,0.00,weatherlink.com 1.10,2013-04-24 15:28:00,
2013-04-24 08:43:00,48.5,46.0,29.85,SSE,150,0.0,1.0,89,0.00,,,0.00,weatherlink.com 1.10,2013-04-24 15:43:00,
2013-04-24 08:58:00,49.7,46.0,29.85,South,181,0.0,1.0,88,0.00,,,0.00,weatherlink.com 1.10,2013-04-24 15:58:00,
2013-04-24 09:13:00,51.5,48.0,29.85,South,178,0.0,1.0,86,0.00,,,0.00,weatherlink.com 1.10,2013-04-24 16:13:00,
2013-04-24 09:28:00,52.5,48.0,29.85,SW,222,0.0,2.0,83,0.00,,,0.00,weatherlink.com 1.10,2013-04-24 16:28:00,
2013-04-24 09:43:00,53.4,47.0,29.85,South,172,1.0,2.0,80,0.00,,,0.00,weatherlink.com 1.10,2013-04-24 16:43:00,
2013-04-24 09:58:00,54.5,48.0,29.85,NNE,28,0.0,1.0,78,0.00,,,0.00,weatherlink.com 1.10,2013-04-24 16:58:00,
2013-04-24 10:13:00,56.6,48.0,29.85,SSW,193,0.0,4.0,74,0.00,,,0.00,weatherlink.com 1.10,2013-04-24 17:13:00,
2013-04-24 10:28:00,58.7,50.0,29.85,SSW,198,1.0,2.0,72,0.00,,,0.00,weatherlink.com 1.10,2013-04-24 17:28:00,
2013-04-24 10:43:00,60.5,51.0,29.85,South,190,0.0,3.0,70,0.00,,,0.00,weatherlink.com 1.10,2013-04-24 17:43:00,
2013-04-24 10:58:00,63.2,51.0,29.85,SSE,163,2.0,4.0,64,0.00,,,0.00,weatherlink.com 1.10,2013-04-24 17:58:00,
2013-04-24 11:13:00,65.4,52.0,29.85,SW,229,1.0,2.0,62,0.00,,,0.00,weatherlink.com 1.10,2013-04-24 18:13:00,
2013-04-24 11:28:00,66.7,51.0,29.85,SSW,203,0.0,3.0,58,0.00,,,0.00,weatherlink.com 1.10,2013-04-24 18:28:00,
2013-04-24 11:43:00,67.9,51.0,29.85,WSW,246,0.0,4.0,56,0.00,,,0.00,weatherlink.com 1.10,2013-04-24 18:43:00,
2013-04-24 11:58:00,69.7,52.0,29.84,SW,227,0.0,2.0,53,0.00,,,0.00,weatherlink.com 1.10,2013-04-24 18:58:00,
2013-04-24 12:14:00,70.6,51.0,29.84,NNW,342,2.0,4.0,50,0.00,,,0.00,weatherlink.com 1.10,2013-04-24 19:14:00,
2013-04-24 12:29:00,70.6,51.0,29.84,NW,324,2.0,5.0,50,0.00,,,0.00,weatherlink.com 1.10,2013-04-24 19:29:00,
2013-04-24 12:44:00,70.8,51.0,29.84,NNW,333,1.0,5.0,49,0.00,,,0.00,weatherlink.com 1.10,2013-04-24 19:44:00,
2013-04-24 12:59:00,70.1,50.0,29.84,NNE,18,5.0,7.0,50,0.00,,,0.00,weatherlink.com 1.10,2013-04-24 19:59:00,
2013-04-24 13:14:00,69.1,51.0,29.84,NNE,20,4.0,6.0,52,0.00,,,0.00,weatherlink.com 1.10,2013-04-24 20:14:00,
2013-04-24 13:29:00,69.9,50.0,29.84,NNE,15,4.0,8.0,50,0.00,,,0.00,weatherlink.com 1.10,2013-04-24 20:29:00,
2013-04-24 13:44:00,68.8,50.0,29.83,NE,36,4.0,9.0,52,0.00,,,0.00,weatherlink.com 1.10,2013-04-24 20:44:00,
2013-04-24 13:59:00,68.8,50.0,29.83,North,359,4.0,9.0,52,0.00,,,0.00,weatherlink.com 1.10,2013-04-24 20:59:00,
2013-04-24 14:14:00,68.6,51.0,29.83,East,92,4.0,8.0,53,0.00,,,0.00,weatherlink.com 1.10,2013-04-24 21:14:00,
2013-04-24 14:29:00,68.6,50.0,29.83,ENE,58,1.0,8.0,52,0.00,,,0.00,weatherlink.com 1.10,2013-04-24 21:29:00,
2013-04-24 14:44:00,69.2,51.0,29.83,NNE,16,2.0,6.0,52,0.00,,,0.00,weatherlink.com 1.10,2013-04-24 21:44:00,
2013-04-24 14:59:00,69.3,50.0,29.82,NNE,21,0.0,9.0,51,0.00,,,0.00,weatherlink.com 1.10,2013-04-24 21:59:00,
2013-04-24 15:14:00,68.2,50.0,29.82,NNE,18,8.0,9.0,53,0.00,,,0.00,weatherlink.com 1.10,2013-04-24 22:14:00,
2013-04-24 15:29:00,67.6,50.0,29.82,NNW,344,5.0,10.0,53,0.00,,,0.00,weatherlink.com 1.10,2013-04-24 22:29:00,
2013-04-24 15:45:00,67.4,50.0,29.82,NNW,340,6.0,10.0,53,0.00,,,0.00,weatherlink.com 1.10,2013-04-24 22:45:00,
2013-04-24 15:59:00,67.1,49.0,29.82,NW,309,6.0,8.0,53,0.00,,,0.00,weatherlink.com 1.10,2013-04-24 22:59:00,
2013-04-24 16:14:00,66.0,49.0,29.82,NE,52,2.0,11.0,55,0.00,,,0.00,weatherlink.com 1.10,2013-04-24 23:14:00,
2013-04-24 16:29:00,64.9,48.0,29.82,NNE,23,8.0,12.0,55,0.00,,,0.00,weatherlink.com 1.10,2013-04-24 23:29:00,
2013-04-24 16:44:00,64.3,48.0,29.82,East,79,8.0,15.0,56,0.00,,,0.00,weatherlink.com 1.10,2013-04-24 23:44:00,
2013-04-24 16:59:00,63.2,48.0,29.82,NE,35,3.0,9.0,58,0.00,,,0.00,weatherlink.com 1.10,2013-04-24 23:59:00,
2013-04-24 17:14:00,62.4,48.0,29.82,NNE,19,4.0,12.0,59,0.00,,,0.00,weatherlink.com 1.10,2013-04-25 00:14:00,
2013-04-24 17:29:00,61.1,47.0,29.82,NE,54,9.0,11.0,61,0.00,,,0.00,weatherlink.com 1.10,2013-04-25 00:29:00,
2013-04-24 17:44:00,60.0,48.0,29.83,ENE,69,1.0,12.0,64,0.00,,,0.00,weatherlink.com 1.10,2013-04-25 00:44:00,
2013-04-24 17:59:00,58.8,47.0,29.84,NE,56,2.0,12.0,66,0.00,,,0.00,weatherlink.com 1.10,2013-04-25 00:59:00,
2013-04-24 18:14:00,57.8,47.0,29.84,North,354,6.0,12.0,68,0.00,,,0.00,weatherlink.com 1.10,2013-04-25 01:14:00,
2013-04-24 18:29:00,56.8,47.0,29.84,NNW,347,6.0,12.0,70,0.00,,,0.00,weatherlink.com 1.10,2013-04-25 01:29:00,
2013-04-24 18:44:00,56.0,47.0,29.85,North,359,4.0,9.0,72,0.00,,,0.00,weatherlink.com 1.10,2013-04-25 01:44:00,
2013-04-24 18:59:00,55.3,47.0,29.85,NE,52,6.0,10.0,74,0.00,,,0.00,weatherlink.com 1.10,2013-04-25 01:59:00,
2013-04-24 19:14:00,54.7,47.0,29.85,NNE,15,1.0,6.0,75,0.00,,,0.00,weatherlink.com 1.10,2013-04-25 02:14:00,
2013-04-24 19:29:00,54.0,47.0,29.86,NE,43,2.0,5.0,77,0.00,,,0.00,weatherlink.com 1.10,2013-04-25 02:29:00,
2013-04-24 19:44:00,53.5,47.0,29.86,West,279,0.0,3.0,78,0.00,,,0.00,weatherlink.com 1.10,2013-04-25 02:44:00,
2013-04-24 19:59:00,53.0,47.0,29.87,NNE,14,1.0,4.0,80,0.00,,,0.00,weatherlink.com 1.10,2013-04-25 02:59:00,
2013-04-24 20:29:00,52.4,47.0,29.88,North,4,2.0,4.0,81,0.00,,,0.00,weatherlink.com 1.10,2013-04-25 03:29:00,
2013-04-24 20:44:00,52.2,47.0,29.88,ENE,66,0.0,4.0,82,0.00,,,0.00,weatherlink.com 1.10,2013-04-25 03:44:00,
2013-04-24 20:59:00,52.1,47.0,29.89,East,80,2.0,4.0,82,0.00,,,0.00,weatherlink.com 1.10,2013-04-25 03:59:00,
2013-04-24 21:14:00,52.1,47.0,29.89,NE,37,2.0,4.0,83,0.00,,,0.00,weatherlink.com 1.10,2013-04-25 04:14:00,
2013-04-24 21:29:00,51.8,47.0,29.89,East,92,0.0,3.0,83,0.00,,,0.00,weatherlink.com 1.10,2013-04-25 04:29:00,
2013-04-24 21:44:00,51.5,47.0,29.90,NNW,344,0.0,1.0,84,0.00,,,0.00,weatherlink.com 1.10,2013-04-25 04:44:00,
2013-04-24 22:00:00,50.6,46.0,29.90,NE,46,0.0,0.0,84,0.00,,,0.00,weatherlink.com 1.10,2013-04-25 05:00:00,
2013-04-24 22:15:00,49.9,46.0,29.91,NE,46,0.0,0.0,87,0.00,,,0.00,weatherlink.com 1.10,2013-04-25 05:15:00,
2013-04-24 22:30:00,49.6,46.0,29.91,NE,46,0.0,0.0,88,0.00,,,0.00,weatherlink.com 1.10,2013-04-25 05:30:00,
2013-04-24 22:45:00,49.7,46.0,29.91,NE,46,0.0,0.0,88,0.00,,,0.00,weatherlink.com 1.10,2013-04-25 05:45:00,
2013-04-24 23:00:00,49.4,46.0,29.91,NE,46,0.0,0.0,89,0.00,,,0.00,weatherlink.com 1.10,2013-04-25 06:00:00,
2013-04-24 23:15:00,49.4,47.0,29.91,NE,46,0.0,0.0,90,0.00,,,0.00,weatherlink.com 1.10,2013-04-25 06:15:00,
2013-04-24 23:30:00,49.1,46.0,29.91,NE,46,0.0,0.0,89,0.00,,,0.00,weatherlink.com 1.10,2013-04-25 06:30:00,
2013-04-24 23:45:00,48.6,46.0,29.91,NE,46,0.0,0.0,90,0.00,,,0.00,weatherlink.com 1.10,2013-04-25 06:45:00,